»·PEaware :: N700MS KEMT-KMYF

N700MS :: KEMT-KMYF

FLIGHT INFORMATION

Flight Status: Arrived
Operator: Privately registered:
United States
More flights under this callsign
Pilot: Jerry C. (10956)
Aircraft: CESSNA 172 SKYHAWK
(C172)
More flights by this aircraft type
Origin: KEMT El Monte
United States
Destination: KMYF Montgomery
United States
More flights between these airports :: More routes between these airports
Route: +PDZ V186 HAILE V66 MZB
File this flight plan on PilotEdge
Remarks: ONTP12
Altitude:
(Current/Filed)
5,000ft
Speed:
(Current/Filed)
100kts
Departed: 16-Aug-19 11:17 AM
Arrived: 16-Aug-19 12:28 PM
Distance/Time
Traveled:
89nm/1:10
Distance/Time
To Go:
Arrived

Flight Plot

Page will automatically refresh every two minutes.


Map Options




Map Legend


Flown Route
Filed Route
Departure Airport
Arrival Airport
Navaid (VOR, NDB)
Fix

Horizontal Profiles

Position Reports

Time Latitude Longitude Heading Altitude Ground
Speed
16-Aug-19 10:56 34.088145 -118.031616 115 299ft 0kts
16-Aug-19 10:57 34.088145 -118.031616 115 299ft 0kts
16-Aug-19 10:58 34.088145 -118.031616 115 299ft 0kts
16-Aug-19 10:59 34.088145 -118.031616 115 299ft 0kts
16-Aug-19 11:00 34.088145 -118.031616 115 299ft 0kts
16-Aug-19 11:01 34.088145 -118.031616 115 299ft 0kts
16-Aug-19 11:03 34.088145 -118.031616 115 299ft 0kts
16-Aug-19 11:04 34.088145 -118.031616 115 299ft 0kts
16-Aug-19 11:05 34.088145 -118.031616 115 299ft 0kts
16-Aug-19 11:06 34.088145 -118.031616 115 299ft 0kts
16-Aug-19 11:07 34.088145 -118.031616 115 299ft 0kts
16-Aug-19 11:08 34.088145 -118.031616 115 299ft 0kts
16-Aug-19 11:09 34.088145 -118.031616 115 299ft 0kts
16-Aug-19 11:10 34.088145 -118.031616 115 299ft 0kts
16-Aug-19 11:11 34.088145 -118.031616 115 299ft 0kts
16-Aug-19 11:12 34.088145 -118.031616 115 299ft 0kts
16-Aug-19 11:13 34.088141 -118.031580 80 299ft 1kts
16-Aug-19 11:14 34.088729 -118.032300 318 299ft 10kts
16-Aug-19 11:15 34.090445 -118.031670 320 299ft 0kts
16-Aug-19 11:16 34.090445 -118.031670 320 299ft 0kts
16-Aug-19 11:17 34.089568 -118.032796 204 299ft 42kts
16-Aug-19 11:18 34.068958 -118.044169 203 918ft 88kts
16-Aug-19 11:19 34.045515 -118.056620 203 1531ft 106kts
16-Aug-19 11:20 34.021472 -118.049204 99 1845ft 85kts
16-Aug-19 11:21 34.023392 -118.024265 80 2546ft 67kts
16-Aug-19 11:21 34.025615 -118.006182 79 3217ft 61kts
16-Aug-19 11:23 34.027959 -117.983080 79 4021ft 60kts
16-Aug-19 11:24 34.029211 -117.962211 79 4640ft 64kts
16-Aug-19 11:24 34.030360 -117.942980 80 5065ft 81kts
16-Aug-19 11:26 34.026348 -117.901766 116 5001ft 118kts
16-Aug-19 11:26 34.016461 -117.871612 107 4997ft 113kts
16-Aug-19 11:27 34.006147 -117.835788 106 5000ft 112kts
16-Aug-19 11:28 33.995989 -117.800179 106 4999ft 112kts
16-Aug-19 11:29 33.985831 -117.764596 106 4999ft 112kts
16-Aug-19 11:31 33.973851 -117.722678 106 5003ft 116kts
16-Aug-19 11:31 33.964978 -117.691697 106 5000ft 117kts
16-Aug-19 11:32 33.954399 -117.654812 106 5153ft 108kts
16-Aug-19 11:33 33.945456 -117.623456 106 5835ft 92kts
16-Aug-19 11:34 33.937632 -117.595992 111 6491ft 80kts
16-Aug-19 11:35 33.930235 -117.570267 113 6986ft 83kts
16-Aug-19 11:36 33.914110 -117.544652 160 7026ft 114kts
16-Aug-19 11:37 33.886563 -117.522133 152 7002ft 123kts
16-Aug-19 11:38 33.858719 -117.497585 151 7000ft 124kts
16-Aug-19 11:39 33.830872 -117.472966 151 7000ft 124kts
16-Aug-19 11:40 33.803014 -117.448353 151 7000ft 124kts
16-Aug-19 11:41 33.775154 -117.423759 151 7000ft 124kts
16-Aug-19 11:42 33.747244 -117.399140 151 7000ft 124kts
16-Aug-19 11:43 33.719343 -117.374550 151 7000ft 124kts
16-Aug-19 11:44 33.691496 -117.350027 151 7000ft 124kts
16-Aug-19 11:45 33.663595 -117.325478 151 7000ft 124kts
16-Aug-19 11:46 33.635690 -117.300944 151 7000ft 124kts
16-Aug-19 11:47 33.607745 -117.276395 151 7000ft 124kts
16-Aug-19 11:48 33.579800 -117.251865 151 7000ft 124kts
16-Aug-19 11:49 33.551890 -117.227384 151 7000ft 124kts
16-Aug-19 11:50 33.523988 -117.202926 151 7000ft 124kts
16-Aug-19 11:51 33.496071 -117.178465 151 7000ft 124kts
16-Aug-19 11:52 33.466277 -117.164710 183 7003ft 114kts
16-Aug-19 11:53 33.434606 -117.158644 179 6999ft 115kts
16-Aug-19 11:54 33.403007 -117.151695 179 7000ft 115kts
16-Aug-19 11:55 33.371392 -117.144695 179 7000ft 115kts
16-Aug-19 11:56 33.339664 -117.137673 179 7000ft 115kts
16-Aug-19 11:57 33.308144 -117.130701 179 7000ft 115kts
16-Aug-19 11:58 33.276420 -117.123690 179 7000ft 115kts
16-Aug-19 11:59 33.244751 -117.116696 179 7000ft 115kts
16-Aug-19 12:00 33.213154 -117.109722 179 7000ft 115kts
16-Aug-19 12:01 33.181510 -117.102744 179 7000ft 115kts
16-Aug-19 12:02 33.150098 -117.095804 179 6945ft 113kts
16-Aug-19 12:03 33.117790 -117.088724 178 6506ft 118kts
16-Aug-19 12:04 33.084831 -117.082563 179 6106ft 121kts
16-Aug-19 12:05 33.051011 -117.077450 177 5702ft 119kts
16-Aug-19 12:06 33.018733 -117.073091 177 5292ft 115kts
16-Aug-19 12:07 32.991158 -117.056738 142 5010ft 113kts
16-Aug-19 12:08 32.966688 -117.034924 142 5000ft 108kts
16-Aug-19 12:09 32.942253 -117.013130 142 5000ft 109kts
16-Aug-19 12:10 32.917810 -116.991309 142 5000ft 110kts
16-Aug-19 12:11 32.893264 -116.969385 142 5000ft 110kts
16-Aug-19 12:12 32.868788 -116.947478 144 5002ft 109kts
16-Aug-19 12:13 32.843443 -116.922994 142 4306ft 123kts
16-Aug-19 12:14 32.818263 -116.900123 142 3985ft 102kts
16-Aug-19 12:15 32.791506 -116.898029 182 4003ft 99kts
16-Aug-19 12:16 32.762215 -116.899511 182 3793ft 105kts
16-Aug-19 12:17 32.735565 -116.904788 248 3787ft 97kts
16-Aug-19 12:18 32.737243 -116.935878 286 3799ft 95kts
16-Aug-19 12:19 32.747494 -116.964923 294 3799ft 94kts
16-Aug-19 12:20 32.758850 -116.993843 295 3543ft 109kts
16-Aug-19 12:21 32.772311 -117.028047 294 2635ft 98kts
16-Aug-19 12:22 32.781045 -117.050414 295 2129ft 75kts
16-Aug-19 12:23 32.790652 -117.074684 295 1471ft 83kts
16-Aug-19 12:24 32.800218 -117.098990 294 985ft 76kts
16-Aug-19 12:25 32.808771 -117.120543 294 724ft 71kts
16-Aug-19 12:26 32.816287 -117.139992 294 430ft 58kts
16-Aug-19 12:27 32.817769 -117.145268 202 430ft 0kts
16-Aug-19 12:28 32.815594 -117.143915 115 430ft 25kts
16-Aug-19 12:29 32.812989 -117.137171 116 430ft 21kts
16-Aug-19 12:30 32.811611 -117.136019 356 430ft 0kts

Navigation Log

Ident Type
Flight plan parsing failed, navigation log unavailable